KDYS/DYS METAR and TAF weather

Enter ICAO airport designator
Station Type Date Time Source
KDYS METAR 2019/06/18 15:56 UTC NOAA

KDYS 181556Z 16015G21KT 10SM CLR 26/16 A2997 RMK AO2A SLP107 T02590161 $


Station Type Date Time Source
KDYS Decoded METAR 2019/06/18 15:56 UTC NOAA

Abilene, Dyess Air Force Base, TX, United States (KDYS) 32-25-12N 099-51-25W
Jun 18, 2019 - 11:56 AM EDT / 2019.06.18 1556 UTC
Wind: from the SSE (160 degrees) at 17 MPH (15 KT) gusting to 24 MPH (21 KT):0
Visibility: 10 mile(s):0
Sky conditions: clear
Temperature: 78.6 F (25.9 C)
Dew Point: 61.0 F (16.1 C)
Relative Humidity: 54%
Pressure (altimeter): 29.97 in. Hg (1014 hPa)
ob: KDYS 181556Z 16015G21KT 10SM CLR 26/16 A2997 RMK AO2A SLP107 T02590161
cycle: 16

Station Type Date Time Source
KDYS TAF 2019/06/18 14:09 UTC NOAA

TAF KDYS 181400Z 1814/1920 17012G18KT 9999 FEW070 FEW200 QNH2985INS
BECMG 1822/1823 18015G20KT 8000 -SHRA VCTS BKN070CB QNH2986INS
TEMPO 1900/1903 VRB25G35KT 3200 -TSRA BKN050CB
BECMG 1902/1903 20012KT 9999 NSW FEW100 QNH2980INS
BECMG 1914/1915 22015G25KT 9999 SKC QNH2974INS TX34/1821Z TN21/1814Z

Example: see airport list